sensor_id;sensor_type;location;lat;lon;timestamp;P1;durP1;ratioP1;P2;durP2;ratioP2
9461;SDS011;4769;42.660;23.262;2023-04-06T00:00:38;9.90;;;8.07;;
9461;SDS011;4769;42.660;23.262;2023-04-06T00:03:04;9.87;;;8.40;;
9461;SDS011;4769;42.660;23.262;2023-04-06T00:05:29;8.77;;;7.87;;
9461;SDS011;4769;42.660;23.262;2023-04-06T00:07:58;8.33;;;7.47;;
9461;SDS011;4769;42.660;23.262;2023-04-06T00:10:24;8.87;;;7.87;;
9461;SDS011;4769;42.660;23.262;2023-04-06T00:12:49;9.90;;;8.07;;
9461;SDS011;4769;42.660;23.262;2023-04-06T00:15:15;9.03;;;7.50;;
9461;SDS011;4769;42.660;23.262;2023-04-06T00:17:41;8.57;;;7.60;;
9461;SDS011;4769;42.660;23.262;2023-04-06T00:20:07;8.93;;;8.00;;
9461;SDS011;4769;42.660;23.262;2023-04-06T00:22:34;9.57;;;8.03;;
9461;SDS011;4769;42.660;23.262;2023-04-06T00:25:02;7.73;;;6.93;;
9461;SDS011;4769;42.660;23.262;2023-04-06T00:27:28;9.40;;;7.67;;
9461;SDS011;4769;42.660;23.262;2023-04-06T00:29:54;7.23;;;6.47;;
9461;SDS011;4769;42.660;23.262;2023-04-06T00:32:20;8.70;;;7.30;;
9461;SDS011;4769;42.660;23.262;2023-04-06T00:34:46;8.60;;;7.70;;
9461;SDS011;4769;42.660;23.262;2023-04-06T00:37:12;8.47;;;7.57;;
9461;SDS011;4769;42.660;23.262;2023-04-06T00:39:37;8.73;;;7.73;;
9461;SDS011;4769;42.660;23.262;2023-04-06T00:42:07;8.70;;;7.80;;
9461;SDS011;4769;42.660;23.262;2023-04-06T00:44:35;9.03;;;8.13;;
9461;SDS011;4769;42.660;23.262;2023-04-06T00:47:01;9.60;;;8.57;;
9461;SDS011;4769;42.660;23.262;2023-04-06T00:49:27;8.67;;;7.73;;
9461;SDS011;4769;42.660;23.262;2023-04-06T00:51:52;9.47;;;8.47;;
9461;SDS011;4769;42.660;23.262;2023-04-06T00:54:18;11.67;;;8.73;;
9461;SDS011;4769;42.660;23.262;2023-04-06T00:56:44;9.63;;;7.57;;
9461;SDS011;4769;42.660;23.262;2023-04-06T00:59:13;9.77;;;8.53;;
9461;SDS011;4769;42.660;23.262;2023-04-06T01:01:38;9.47;;;8.47;;
9461;SDS011;4769;42.660;23.262;2023-04-06T01:04:04;9.03;;;8.10;;
9461;SDS011;4769;42.660;23.262;2023-04-06T01:06:30;10.13;;;8.13;;
9461;SDS011;4769;42.660;23.262;2023-04-06T01:08:56;9.97;;;8.70;;
9461;SDS011;4769;42.660;23.262;2023-04-06T01:11:22;10.00;;;8.90;;
9461;SDS011;4769;42.660;23.262;2023-04-06T01:13:48;10.60;;;9.23;;
9461;SDS011;4769;42.660;23.262;2023-04-06T01:16:16;11.67;;;9.83;;
9461;SDS011;4769;42.660;23.262;2023-04-06T01:18:42;12.33;;;9.90;;
9461;SDS011;4769;42.660;23.262;2023-04-06T01:21:08;8.67;;;7.67;;
9461;SDS011;4769;42.660;23.262;2023-04-06T01:23:36;10.00;;;8.57;;
9461;SDS011;4769;42.660;23.262;2023-04-06T01:26:02;11.30;;;9.47;;
9461;SDS011;4769;42.660;23.262;2023-04-06T01:28:28;10.93;;;9.10;;
9461;SDS011;4769;42.660;23.262;2023-04-06T01:30:53;9.00;;;7.73;;
9461;SDS011;4769;42.660;23.262;2023-04-06T01:33:19;9.87;;;8.70;;
9461;SDS011;4769;42.660;23.262;2023-04-06T01:35:45;9.77;;;8.50;;
9461;SDS011;4769;42.660;23.262;2023-04-06T01:38:10;10.47;;;9.37;;
9461;SDS011;4769;42.660;23.262;2023-04-06T01:40:39;10.67;;;8.47;;
9461;SDS011;4769;42.660;23.262;2023-04-06T01:43:05;9.07;;;7.77;;
9461;SDS011;4769;42.660;23.262;2023-04-06T01:45:30;9.53;;;8.20;;
9461;SDS011;4769;42.660;23.262;2023-04-06T01:47:56;9.23;;;8.03;;
9461;SDS011;4769;42.660;23.262;2023-04-06T01:50:22;8.90;;;8.00;;
9461;SDS011;4769;42.660;23.262;2023-04-06T01:52:47;8.70;;;7.77;;
9461;SDS011;4769;42.660;23.262;2023-04-06T01:55:13;9.80;;;8.40;;
9461;SDS011;4769;42.660;23.262;2023-04-06T01:57:42;10.23;;;8.13;;
9461;SDS011;4769;42.660;23.262;2023-04-06T02:00:08;10.17;;;7.97;;
9461;SDS011;4769;42.660;23.262;2023-04-06T02:02:35;8.93;;;7.73;;
9461;SDS011;4769;42.660;23.262;2023-04-06T02:05:01;10.80;;;8.67;;
9461;SDS011;4769;42.660;23.262;2023-04-06T02:07:26;11.00;;;8.73;;
9461;SDS011;4769;42.660;23.262;2023-04-06T02:09:53;11.03;;;8.70;;
9461;SDS011;4769;42.660;23.262;2023-04-06T02:12:20;10.10;;;8.10;;
9461;SDS011;4769;42.660;23.262;2023-04-06T02:14:48;10.07;;;8.20;;
9461;SDS011;4769;42.660;23.262;2023-04-06T02:17:14;9.57;;;8.60;;
9461;SDS011;4769;42.660;23.262;2023-04-06T02:19:40;9.73;;;8.23;;
9461;SDS011;4769;42.660;23.262;2023-04-06T02:22:05;8.87;;;7.97;;
9461;SDS011;4769;42.660;23.262;2023-04-06T02:24:31;10.97;;;7.83;;
9461;SDS011;4769;42.660;23.262;2023-04-06T02:26:57;11.10;;;8.43;;
9461;SDS011;4769;42.660;23.262;2023-04-06T02:29:23;7.13;;;6.27;;
9461;SDS011;4769;42.660;23.262;2023-04-06T02:31:51;8.20;;;7.23;;
9461;SDS011;4769;42.660;23.262;2023-04-06T02:34:17;10.63;;;7.73;;
9461;SDS011;4769;42.660;23.262;2023-04-06T02:36:43;9.50;;;7.83;;
9461;SDS011;4769;42.660;23.262;2023-04-06T02:39:09;9.33;;;7.53;;
9461;SDS011;4769;42.660;23.262;2023-04-06T02:41:35;9.30;;;7.20;;
9461;SDS011;4769;42.660;23.262;2023-04-06T02:44:02;8.67;;;7.37;;
9461;SDS011;4769;42.660;23.262;2023-04-06T02:46:28;10.03;;;8.47;;
9461;SDS011;4769;42.660;23.262;2023-04-06T02:48:57;7.80;;;6.53;;
9461;SDS011;4769;42.660;23.262;2023-04-06T02:51:22;11.00;;;8.13;;
9461;SDS011;4769;42.660;23.262;2023-04-06T02:53:48;9.70;;;7.53;;
9461;SDS011;4769;42.660;23.262;2023-04-06T02:56:14;12.30;;;9.77;;
9461;SDS011;4769;42.660;23.262;2023-04-06T02:58:40;13.93;;;10.53;;
9461;SDS011;4769;42.660;23.262;2023-04-06T03:01:05;9.27;;;7.80;;
9461;SDS011;4769;42.660;23.262;2023-04-06T03:03:31;10.63;;;8.17;;
9461;SDS011;4769;42.660;23.262;2023-04-06T03:05:59;9.63;;;8.10;;
9461;SDS011;4769;42.660;23.262;2023-04-06T03:08:25;10.73;;;8.90;;
9461;SDS011;4769;42.660;23.262;2023-04-06T03:10:51;11.33;;;8.67;;
9461;SDS011;4769;42.660;23.262;2023-04-06T03:13:17;11.17;;;9.10;;
9461;SDS011;4769;42.660;23.262;2023-04-06T03:15:42;10.57;;;8.30;;
9461;SDS011;4769;42.660;23.262;2023-04-06T03:18:08;10.57;;;7.70;;
9461;SDS011;4769;42.660;23.262;2023-04-06T03:20:34;11.50;;;8.60;;
9461;SDS011;4769;42.660;23.262;2023-04-06T03:23:02;11.53;;;9.07;;
9461;SDS011;4769;42.660;23.262;2023-04-06T03:25:28;8.30;;;7.40;;
9461;SDS011;4769;42.660;23.262;2023-04-06T03:27:54;12.73;;;9.57;;
9461;SDS011;4769;42.660;23.262;2023-04-06T03:30:19;9.30;;;7.87;;
9461;SDS011;4769;42.660;23.262;2023-04-06T03:32:45;10.27;;;8.37;;
9461;SDS011;4769;42.660;23.262;2023-04-06T03:35:11;9.77;;;8.07;;
9461;SDS011;4769;42.660;23.262;2023-04-06T03:37:37;8.67;;;7.47;;
9461;SDS011;4769;42.660;23.262;2023-04-06T03:40:05;9.20;;;8.07;;
9461;SDS011;4769;42.660;23.262;2023-04-06T03:42:32;8.73;;;7.73;;
9461;SDS011;4769;42.660;23.262;2023-04-06T03:44:58;8.17;;;7.23;;
9461;SDS011;4769;42.660;23.262;2023-04-06T03:47:24;9.63;;;8.53;;
9461;SDS011;4769;42.660;23.262;2023-04-06T03:49:50;9.67;;;7.93;;
9461;SDS011;4769;42.660;23.262;2023-04-06T03:52:16;8.37;;;6.80;;
9461;SDS011;4769;42.660;23.262;2023-04-06T03:54:41;7.53;;;6.40;;
9461;SDS011;4769;42.660;23.262;2023-04-06T03:57:10;7.90;;;6.70;;
9461;SDS011;4769;42.660;23.262;2023-04-06T03:59:36;9.67;;;7.57;;
9461;SDS011;4769;42.660;23.262;2023-04-06T04:02:01;8.83;;;7.43;;
9461;SDS011;4769;42.660;23.262;2023-04-06T04:04:27;8.10;;;6.87;;
9461;SDS011;4769;42.660;23.262;2023-04-06T04:06:53;7.93;;;6.43;;
9461;SDS011;4769;42.660;23.262;2023-04-06T04:09:19;8.73;;;7.43;;
9461;SDS011;4769;42.660;23.262;2023-04-06T04:11:44;8.23;;;7.33;;
9461;SDS011;4769;42.660;23.262;2023-04-06T04:14:13;8.37;;;7.10;;
9461;SDS011;4769;42.660;23.262;2023-04-06T04:16:39;8.10;;;7.13;;
9461;SDS011;4769;42.660;23.262;2023-04-06T04:19:04;10.00;;;7.80;;
9461;SDS011;4769;42.660;23.262;2023-04-06T04:21:31;7.53;;;6.73;;
9461;SDS011;4769;42.660;23.262;2023-04-06T04:23:56;8.03;;;7.10;;
9461;SDS011;4769;42.660;23.262;2023-04-06T04:26:22;8.77;;;6.80;;
9461;SDS011;4769;42.660;23.262;2023-04-06T04:28:48;8.70;;;7.27;;
9461;SDS011;4769;42.660;23.262;2023-04-06T04:31:16;8.40;;;6.70;;
9461;SDS011;4769;42.660;23.262;2023-04-06T04:33:42;7.70;;;6.63;;
9461;SDS011;4769;42.660;23.262;2023-04-06T04:36:08;8.60;;;7.27;;
9461;SDS011;4769;42.660;23.262;2023-04-06T04:38:34;8.90;;;7.93;;
9461;SDS011;4769;42.660;23.262;2023-04-06T04:41:00;8.40;;;7.50;;
9461;SDS011;4769;42.660;23.262;2023-04-06T04:43:25;10.67;;;8.67;;
9461;SDS011;4769;42.660;23.262;2023-04-06T04:45:51;8.80;;;7.90;;
9461;SDS011;4769;42.660;23.262;2023-04-06T04:48:22;9.63;;;8.07;;
9461;SDS011;4769;42.660;23.262;2023-04-06T04:50:48;9.13;;;8.17;;
9461;SDS011;4769;42.660;23.262;2023-04-06T04:53:13;9.43;;;7.37;;
9461;SDS011;4769;42.660;23.262;2023-04-06T04:55:39;10.20;;;8.33;;
9461;SDS011;4769;42.660;23.262;2023-04-06T04:58:05;9.23;;;7.70;;
9461;SDS011;4769;42.660;23.262;2023-04-06T05:00:31;8.23;;;6.67;;
9461;SDS011;4769;42.660;23.262;2023-04-06T05:02:56;9.00;;;7.33;;
9461;SDS011;4769;42.660;23.262;2023-04-06T05:05:25;8.70;;;7.83;;
9461;SDS011;4769;42.660;23.262;2023-04-06T05:07:51;9.37;;;7.40;;
9461;SDS011;4769;42.660;23.262;2023-04-06T05:10:16;8.30;;;7.10;;
9461;SDS011;4769;42.660;23.262;2023-04-06T05:12:42;9.30;;;8.20;;
9461;SDS011;4769;42.660;23.262;2023-04-06T05:15:09;10.03;;;8.07;;
9461;SDS011;4769;42.660;23.262;2023-04-06T05:17:35;9.60;;;8.43;;
9461;SDS011;4769;42.660;23.262;2023-04-06T05:20:01;9.70;;;7.90;;
9461;SDS011;4769;42.660;23.262;2023-04-06T05:22:29;9.27;;;7.50;;
9461;SDS011;4769;42.660;23.262;2023-04-06T05:24:55;11.20;;;8.90;;
9461;SDS011;4769;42.660;23.262;2023-04-06T05:27:21;9.60;;;8.47;;
9461;SDS011;4769;42.660;23.262;2023-04-06T05:29:47;15.30;;;9.83;;
9461;SDS011;4769;42.660;23.262;2023-04-06T05:32:13;11.10;;;8.87;;
9461;SDS011;4769;42.660;23.262;2023-04-06T05:34:38;10.37;;;8.57;;
9461;SDS011;4769;42.660;23.262;2023-04-06T05:37:04;10.67;;;9.07;;
9461;SDS011;4769;42.660;23.262;2023-04-06T05:39:33;9.53;;;8.03;;
9461;SDS011;4769;42.660;23.262;2023-04-06T05:42:01;11.93;;;8.70;;
9461;SDS011;4769;42.660;23.262;2023-04-06T05:44:29;12.17;;;9.83;;
9461;SDS011;4769;42.660;23.262;2023-04-06T05:46:54;10.83;;;8.63;;
9461;SDS011;4769;42.660;23.262;2023-04-06T05:49:20;12.53;;;8.40;;
9461;SDS011;4769;42.660;23.262;2023-04-06T05:51:46;10.33;;;8.37;;
9461;SDS011;4769;42.660;23.262;2023-04-06T05:54:11;9.60;;;8.33;;
9461;SDS011;4769;42.660;23.262;2023-04-06T05:56:40;10.57;;;8.93;;
9461;SDS011;4769;42.660;23.262;2023-04-06T05:59:06;10.50;;;9.07;;
9461;SDS011;4769;42.660;23.262;2023-04-06T06:01:32;10.30;;;8.70;;
9461;SDS011;4769;42.660;23.262;2023-04-06T06:03:58;10.37;;;8.53;;
9461;SDS011;4769;42.660;23.262;2023-04-06T06:06:25;10.97;;;9.53;;
9461;SDS011;4769;42.660;23.262;2023-04-06T06:08:52;12.07;;;8.80;;
9461;SDS011;4769;42.660;23.262;2023-04-06T06:11:18;11.53;;;8.53;;
9461;SDS011;4769;42.660;23.262;2023-04-06T06:13:46;9.43;;;8.43;;
9461;SDS011;4769;42.660;23.262;2023-04-06T06:16:12;11.40;;;9.30;;
9461;SDS011;4769;42.660;23.262;2023-04-06T06:18:38;12.30;;;9.30;;
9461;SDS011;4769;42.660;23.262;2023-04-06T06:21:04;12.77;;;9.60;;
9461;SDS011;4769;42.660;23.262;2023-04-06T06:23:29;9.67;;;7.20;;
9461;SDS011;4769;42.660;23.262;2023-04-06T06:25:55;9.70;;;8.03;;
9461;SDS011;4769;42.660;23.262;2023-04-06T06:28:21;10.77;;;8.90;;
9461;SDS011;4769;42.660;23.262;2023-04-06T06:30:49;10.13;;;8.57;;
9461;SDS011;4769;42.660;23.262;2023-04-06T06:33:15;10.23;;;8.30;;
9461;SDS011;4769;42.660;23.262;2023-04-06T06:35:41;10.80;;;8.37;;
9461;SDS011;4769;42.660;23.262;2023-04-06T06:38:07;14.20;;;9.20;;
9461;SDS011;4769;42.660;23.262;2023-04-06T06:40:33;9.30;;;7.87;;
9461;SDS011;4769;42.660;23.262;2023-04-06T06:42:59;11.03;;;8.50;;
9461;SDS011;4769;42.660;23.262;2023-04-06T06:45:25;7.80;;;7.00;;
9461;SDS011;4769;42.660;23.262;2023-04-06T06:47:53;10.03;;;8.07;;
9461;SDS011;4769;42.660;23.262;2023-04-06T06:50:19;9.70;;;8.37;;
9461;SDS011;4769;42.660;23.262;2023-04-06T06:52:44;10.63;;;8.10;;
9461;SDS011;4769;42.660;23.262;2023-04-06T06:55:10;8.90;;;7.37;;
9461;SDS011;4769;42.660;23.262;2023-04-06T06:57:36;10.77;;;7.93;;
9461;SDS011;4769;42.660;23.262;2023-04-06T07:00:02;10.47;;;7.77;;
9461;SDS011;4769;42.660;23.262;2023-04-06T07:02:29;9.50;;;8.30;;
9461;SDS011;4769;42.660;23.262;2023-04-06T07:04:57;10.47;;;8.80;;
9461;SDS011;4769;42.660;23.262;2023-04-06T07:07:23;10.97;;;7.97;;
9461;SDS011;4769;42.660;23.262;2023-04-06T07:09:48;8.67;;;7.10;;
9461;SDS011;4769;42.660;23.262;2023-04-06T07:12:14;9.17;;;7.67;;
9461;SDS011;4769;42.660;23.262;2023-04-06T07:14:40;10.83;;;8.30;;
9461;SDS011;4769;42.660;23.262;2023-04-06T07:17:06;10.53;;;7.90;;
9461;SDS011;4769;42.660;23.262;2023-04-06T07:19:31;10.47;;;8.07;;
9461;SDS011;4769;42.660;23.262;2023-04-06T07:22:00;9.20;;;7.83;;
9461;SDS011;4769;42.660;23.262;2023-04-06T07:24:26;10.10;;;7.93;;
9461;SDS011;4769;42.660;23.262;2023-04-06T07:26:51;8.90;;;7.03;;
9461;SDS011;4769;42.660;23.262;2023-04-06T07:29:17;7.40;;;6.50;;
9461;SDS011;4769;42.660;23.262;2023-04-06T07:31:43;9.27;;;7.87;;
9461;SDS011;4769;42.660;23.262;2023-04-06T07:34:09;10.73;;;8.20;;
9461;SDS011;4769;42.660;23.262;2023-04-06T07:36:34;12.13;;;8.70;;
9461;SDS011;4769;42.660;23.262;2023-04-06T07:39:03;8.40;;;7.17;;
9461;SDS011;4769;42.660;23.262;2023-04-06T07:41:29;11.47;;;8.80;;
9461;SDS011;4769;42.660;23.262;2023-04-06T07:43:54;10.10;;;8.87;;
9461;SDS011;4769;42.660;23.262;2023-04-06T07:46:20;12.97;;;9.40;;
9461;SDS011;4769;42.660;23.262;2023-04-06T07:48:46;10.70;;;9.53;;
9461;SDS011;4769;42.660;23.262;2023-04-06T07:51:12;9.73;;;8.73;;
9461;SDS011;4769;42.660;23.262;2023-04-06T07:53:37;8.83;;;7.93;;
9461;SDS011;4769;42.660;23.262;2023-04-06T07:56:06;9.90;;;7.67;;
9461;SDS011;4769;42.660;23.262;2023-04-06T07:58:32;10.20;;;8.33;;
9461;SDS011;4769;42.660;23.262;2023-04-06T08:00:58;9.90;;;8.47;;
9461;SDS011;4769;42.660;23.262;2023-04-06T08:03:23;11.77;;;7.97;;
9461;SDS011;4769;42.660;23.262;2023-04-06T08:05:49;10.13;;;8.33;;
9461;SDS011;4769;42.660;23.262;2023-04-06T08:08:15;10.53;;;8.33;;
9461;SDS011;4769;42.660;23.262;2023-04-06T08:10:41;10.87;;;8.33;;
9461;SDS011;4769;42.660;23.262;2023-04-06T08:13:09;9.50;;;8.30;;
9461;SDS011;4769;42.660;23.262;2023-04-06T08:15:35;11.33;;;8.30;;
9461;SDS011;4769;42.660;23.262;2023-04-06T08:18:01;9.57;;;8.30;;
9461;SDS011;4769;42.660;23.262;2023-04-06T08:20:26;10.93;;;9.20;;
9461;SDS011;4769;42.660;23.262;2023-04-06T08:22:52;13.47;;;9.73;;
9461;SDS011;4769;42.660;23.262;2023-04-06T08:25:18;9.50;;;7.90;;
9461;SDS011;4769;42.660;23.262;2023-04-06T08:27:44;13.50;;;8.77;;
9461;SDS011;4769;42.660;23.262;2023-04-06T08:30:12;15.40;;;9.63;;
9461;SDS011;4769;42.660;23.262;2023-04-06T08:32:38;9.77;;;7.63;;
9461;SDS011;4769;42.660;23.262;2023-04-06T08:35:04;7.33;;;6.47;;
9461;SDS011;4769;42.660;23.262;2023-04-06T08:37:31;8.93;;;7.87;;
9461;SDS011;4769;42.660;23.262;2023-04-06T08:39:57;9.10;;;7.93;;
9461;SDS011;4769;42.660;23.262;2023-04-06T08:42:24;11.80;;;8.77;;
9461;SDS011;4769;42.660;23.262;2023-04-06T08:44:51;8.47;;;7.43;;
9461;SDS011;4769;42.660;23.262;2023-04-06T08:47:19;12.00;;;8.53;;
9461;SDS011;4769;42.660;23.262;2023-04-06T08:49:45;9.20;;;7.63;;
9461;SDS011;4769;42.660;23.262;2023-04-06T08:52:11;10.53;;;7.70;;
9461;SDS011;4769;42.660;23.262;2023-04-06T08:54:38;10.20;;;8.10;;
9461;SDS011;4769;42.660;23.262;2023-04-06T08:57:04;11.10;;;9.33;;
9461;SDS011;4769;42.660;23.262;2023-04-06T08:59:30;12.57;;;9.27;;
9461;SDS011;4769;42.660;23.262;2023-04-06T09:01:57;15.03;;;10.67;;
9461;SDS011;4769;42.660;23.262;2023-04-06T09:04:26;11.73;;;8.17;;
9461;SDS011;4769;42.660;23.262;2023-04-06T09:06:52;13.97;;;10.23;;
9461;SDS011;4769;42.660;23.262;2023-04-06T09:09:18;9.57;;;8.50;;
9461;SDS011;4769;42.660;23.262;2023-04-06T09:11:44;11.03;;;9.07;;
9461;SDS011;4769;42.660;23.262;2023-04-06T09:14:12;10.50;;;8.93;;
9461;SDS011;4769;42.660;23.262;2023-04-06T09:16:40;10.10;;;8.40;;
9461;SDS011;4769;42.660;23.262;2023-04-06T09:19:07;9.73;;;8.73;;
9461;SDS011;4769;42.660;23.262;2023-04-06T09:21:36;10.73;;;8.13;;
9461;SDS011;4769;42.660;23.262;2023-04-06T09:24:02;10.93;;;9.30;;
9461;SDS011;4769;42.660;23.262;2023-04-06T09:26:29;11.03;;;9.20;;
9461;SDS011;4769;42.660;23.262;2023-04-06T09:28:56;9.43;;;8.43;;
9461;SDS011;4769;42.660;23.262;2023-04-06T09:31:24;8.93;;;8.03;;
9461;SDS011;4769;42.660;23.262;2023-04-06T09:33:50;10.17;;;8.30;;
9461;SDS011;4769;42.660;23.262;2023-04-06T09:36:17;10.77;;;9.43;;
9461;SDS011;4769;42.660;23.262;2023-04-06T09:38:55;9.63;;;8.53;;
9461;SDS011;4769;42.660;23.262;2023-04-06T09:41:22;10.37;;;8.03;;
9461;SDS011;4769;42.660;23.262;2023-04-06T09:43:49;8.30;;;7.50;;
9461;SDS011;4769;42.660;23.262;2023-04-06T09:46:15;8.80;;;7.43;;
9461;SDS011;4769;42.660;23.262;2023-04-06T09:48:42;8.90;;;8.00;;
9461;SDS011;4769;42.660;23.262;2023-04-06T09:51:08;9.70;;;8.43;;
9461;SDS011;4769;42.660;23.262;2023-04-06T09:53:39;12.57;;;8.40;;
9461;SDS011;4769;42.660;23.262;2023-04-06T09:56:12;10.53;;;8.47;;
9461;SDS011;4769;42.660;23.262;2023-04-06T09:58:45;9.37;;;7.37;;
9461;SDS011;4769;42.660;23.262;2023-04-06T10:01:15;8.67;;;7.60;;
9461;SDS011;4769;42.660;23.262;2023-04-06T10:03:45;8.93;;;7.90;;
9461;SDS011;4769;42.660;23.262;2023-04-06T10:06:17;7.83;;;7.00;;
9461;SDS011;4769;42.660;23.262;2023-04-06T10:08:47;10.10;;;8.30;;
9461;SDS011;4769;42.660;23.262;2023-04-06T10:11:19;11.13;;;9.27;;
9461;SDS011;4769;42.660;23.262;2023-04-06T10:13:46;10.03;;;8.43;;
9461;SDS011;4769;42.660;23.262;2023-04-06T10:16:13;9.47;;;8.43;;
9461;SDS011;4769;42.660;23.262;2023-04-06T10:18:40;12.33;;;8.37;;
9461;SDS011;4769;42.660;23.262;2023-04-06T10:21:11;13.67;;;9.83;;
9461;SDS011;4769;42.660;23.262;2023-04-06T10:23:40;10.53;;;9.03;;
9461;SDS011;4769;42.660;23.262;2023-04-06T10:26:12;11.30;;;8.50;;
9461;SDS011;4769;42.660;23.262;2023-04-06T10:28:42;13.20;;;8.60;;
9461;SDS011;4769;42.660;23.262;2023-04-06T10:31:09;18.73;;;11.27;;
9461;SDS011;4769;42.660;23.262;2023-04-06T10:33:36;12.67;;;9.37;;
9461;SDS011;4769;42.660;23.262;2023-04-06T10:36:09;9.20;;;7.33;;
9461;SDS011;4769;42.660;23.262;2023-04-06T10:38:36;8.93;;;8.10;;
9461;SDS011;4769;42.660;23.262;2023-04-06T10:41:06;10.10;;;9.07;;
9461;SDS011;4769;42.660;23.262;2023-04-06T10:43:33;12.00;;;10.13;;
9461;SDS011;4769;42.660;23.262;2023-04-06T10:46:02;13.27;;;9.73;;
9461;SDS011;4769;42.660;23.262;2023-04-06T10:48:36;11.37;;;10.17;;
9461;SDS011;4769;42.660;23.262;2023-04-06T10:51:06;12.80;;;11.37;;
9461;SDS011;4769;42.660;23.262;2023-04-06T10:53:33;13.03;;;10.77;;
9461;SDS011;4769;42.660;23.262;2023-04-06T10:55:59;14.93;;;10.40;;
9461;SDS011;4769;42.660;23.262;2023-04-06T10:58:26;11.63;;;9.53;;
9461;SDS011;4769;42.660;23.262;2023-04-06T11:00:52;11.57;;;9.40;;
9461;SDS011;4769;42.660;23.262;2023-04-06T11:03:22;12.57;;;10.07;;
9461;SDS011;4769;42.660;23.262;2023-04-06T11:05:48;12.13;;;9.90;;
9461;SDS011;4769;42.660;23.262;2023-04-06T11:08:28;12.03;;;9.57;;
9461;SDS011;4769;42.660;23.262;2023-04-06T11:11:06;13.83;;;10.97;;
9461;SDS011;4769;42.660;23.262;2023-04-06T11:13:42;18.13;;;11.50;;
9461;SDS011;4769;42.660;23.262;2023-04-06T11:16:15;15.80;;;11.47;;
9461;SDS011;4769;42.660;23.262;2023-04-06T11:18:55;15.97;;;11.53;;
9461;SDS011;4769;42.660;23.262;2023-04-06T11:21:32;12.87;;;10.57;;
9461;SDS011;4769;42.660;23.262;2023-04-06T11:24:05;17.90;;;12.30;;
9461;SDS011;4769;42.660;23.262;2023-04-06T11:26:36;19.97;;;13.17;;
9461;SDS011;4769;42.660;23.262;2023-04-06T11:29:02;12.40;;;11.10;;
9461;SDS011;4769;42.660;23.262;2023-04-06T11:31:28;16.27;;;11.87;;
9461;SDS011;4769;42.660;23.262;2023-04-06T11:33:57;15.10;;;11.60;;
9461;SDS011;4769;42.660;23.262;2023-04-06T11:36:23;16.40;;;12.03;;
9461;SDS011;4769;42.660;23.262;2023-04-06T11:38:52;11.47;;;9.80;;
9461;SDS011;4769;42.660;23.262;2023-04-06T11:41:18;11.50;;;9.03;;
9461;SDS011;4769;42.660;23.262;2023-04-06T11:43:48;11.73;;;10.00;;
9461;SDS011;4769;42.660;23.262;2023-04-06T11:46:17;10.13;;;9.07;;
9461;SDS011;4769;42.660;23.262;2023-04-06T11:48:44;12.23;;;10.83;;
9461;SDS011;4769;42.660;23.262;2023-04-06T11:51:13;11.93;;;10.10;;
9461;SDS011;4769;42.660;23.262;2023-04-06T11:53:47;12.83;;;8.57;;
9461;SDS011;4769;42.660;23.262;2023-04-06T11:56:22;15.37;;;11.60;;
9461;SDS011;4769;42.660;23.262;2023-04-06T11:58:48;11.17;;;10.07;;
9461;SDS011;4769;42.660;23.262;2023-04-06T12:01:14;10.37;;;9.37;;
9461;SDS011;4769;42.660;23.262;2023-04-06T12:03:40;8.03;;;6.93;;
9461;SDS011;4769;42.660;23.262;2023-04-06T12:06:06;10.43;;;8.53;;
9461;SDS011;4769;42.660;23.262;2023-04-06T12:08:34;12.77;;;10.77;;
9461;SDS011;4769;42.660;23.262;2023-04-06T12:11:00;12.00;;;9.33;;
9461;SDS011;4769;42.660;23.262;2023-04-06T12:13:25;9.73;;;8.40;;
9461;SDS011;4769;42.660;23.262;2023-04-06T12:15:51;13.20;;;8.90;;
9461;SDS011;4769;42.660;23.262;2023-04-06T12:18:17;11.33;;;9.53;;
9461;SDS011;4769;42.660;23.262;2023-04-06T12:20:43;11.63;;;8.83;;
9461;SDS011;4769;42.660;23.262;2023-04-06T12:23:08;11.13;;;8.33;;
9461;SDS011;4769;42.660;23.262;2023-04-06T12:25:37;10.77;;;9.43;;
9461;SDS011;4769;42.660;23.262;2023-04-06T12:28:04;12.10;;;9.57;;
9461;SDS011;4769;42.660;23.262;2023-04-06T12:30:30;8.77;;;7.97;;
9461;SDS011;4769;42.660;23.262;2023-04-06T12:32:55;14.13;;;10.50;;
9461;SDS011;4769;42.660;23.262;2023-04-06T12:35:21;12.50;;;11.20;;
9461;SDS011;4769;42.660;23.262;2023-04-06T12:37:47;9.20;;;8.17;;
9461;SDS011;4769;42.660;23.262;2023-04-06T12:40:13;10.33;;;8.90;;
9461;SDS011;4769;42.660;23.262;2023-04-06T12:42:41;10.33;;;9.13;;
9461;SDS011;4769;42.660;23.262;2023-04-06T12:45:07;13.87;;;9.63;;
9461;SDS011;4769;42.660;23.262;2023-04-06T12:47:34;10.60;;;8.53;;
9461;SDS011;4769;42.660;23.262;2023-04-06T12:49:59;10.27;;;8.23;;
9461;SDS011;4769;42.660;23.262;2023-04-06T12:52:25;14.33;;;10.50;;
9461;SDS011;4769;42.660;23.262;2023-04-06T12:54:51;18.47;;;14.93;;
9461;SDS011;4769;42.660;23.262;2023-04-06T12:57:17;10.07;;;8.97;;
9461;SDS011;4769;42.660;23.262;2023-04-06T12:59:45;8.30;;;7.50;;
9461;SDS011;4769;42.660;23.262;2023-04-06T13:02:11;8.50;;;7.63;;
9461;SDS011;4769;42.660;23.262;2023-04-06T13:04:37;10.00;;;7.00;;
9461;SDS011;4769;42.660;23.262;2023-04-06T13:07:03;10.93;;;8.90;;
9461;SDS011;4769;42.660;23.262;2023-04-06T13:09:29;13.77;;;8.87;;
9461;SDS011;4769;42.660;23.262;2023-04-06T13:11:54;31.70;;;15.23;;
9461;SDS011;4769;42.660;23.262;2023-04-06T13:14:20;8.73;;;7.67;;
9461;SDS011;4769;42.660;23.262;2023-04-06T13:16:49;15.50;;;10.33;;
9461;SDS011;4769;42.660;23.262;2023-04-06T13:19:15;11.33;;;9.40;;
9461;SDS011;4769;42.660;23.262;2023-04-06T13:21:40;13.40;;;9.97;;
9461;SDS011;4769;42.660;23.262;2023-04-06T13:24:06;19.57;;;12.60;;
9461;SDS011;4769;42.660;23.262;2023-04-06T13:26:32;13.40;;;10.00;;
9461;SDS011;4769;42.660;23.262;2023-04-06T13:28:59;14.53;;;10.13;;
9461;SDS011;4769;42.660;23.262;2023-04-06T13:31:25;25.00;;;14.73;;
9461;SDS011;4769;42.660;23.262;2023-04-06T13:33:53;17.77;;;11.83;;
9461;SDS011;4769;42.660;23.262;2023-04-06T13:36:19;11.33;;;9.10;;
9461;SDS011;4769;42.660;23.262;2023-04-06T13:38:45;11.23;;;9.87;;
9461;SDS011;4769;42.660;23.262;2023-04-06T13:41:17;14.77;;;11.37;;
9461;SDS011;4769;42.660;23.262;2023-04-06T13:43:43;27.20;;;15.27;;
9461;SDS011;4769;42.660;23.262;2023-04-06T13:46:09;27.20;;;13.23;;
9461;SDS011;4769;42.660;23.262;2023-04-06T13:48:35;30.20;;;17.90;;
9461;SDS011;4769;42.660;23.262;2023-04-06T13:51:10;18.53;;;11.90;;
9461;SDS011;4769;42.660;23.262;2023-04-06T13:53:36;25.43;;;15.57;;
9461;SDS011;4769;42.660;23.262;2023-04-06T13:56:02;16.27;;;10.73;;
9461;SDS011;4769;42.660;23.262;2023-04-06T13:58:28;24.67;;;15.13;;
9461;SDS011;4769;42.660;23.262;2023-04-06T14:00:54;13.77;;;9.73;;
9461;SDS011;4769;42.660;23.262;2023-04-06T14:03:20;15.93;;;12.27;;
9461;SDS011;4769;42.660;23.262;2023-04-06T14:05:47;21.33;;;13.53;;
9461;SDS011;4769;42.660;23.262;2023-04-06T14:08:15;20.43;;;13.70;;
9461;SDS011;4769;42.660;23.262;2023-04-06T14:10:41;20.70;;;13.57;;
9461;SDS011;4769;42.660;23.262;2023-04-06T14:13:07;15.43;;;11.67;;
9461;SDS011;4769;42.660;23.262;2023-04-06T14:15:33;16.57;;;12.30;;
9461;SDS011;4769;42.660;23.262;2023-04-06T14:17:59;16.33;;;12.13;;
9461;SDS011;4769;42.660;23.262;2023-04-06T14:20:25;17.87;;;11.80;;
9461;SDS011;4769;42.660;23.262;2023-04-06T14:22:50;12.10;;;10.43;;
9461;SDS011;4769;42.660;23.262;2023-04-06T14:25:19;9.83;;;8.83;;
9461;SDS011;4769;42.660;23.262;2023-04-06T14:27:44;13.43;;;10.00;;
9461;SDS011;4769;42.660;23.262;2023-04-06T14:30:11;10.87;;;9.57;;
9461;SDS011;4769;42.660;23.262;2023-04-06T14:32:37;12.87;;;10.73;;
9461;SDS011;4769;42.660;23.262;2023-04-06T14:35:03;10.63;;;9.43;;
9461;SDS011;4769;42.660;23.262;2023-04-06T14:37:29;14.43;;;11.00;;
9461;SDS011;4769;42.660;23.262;2023-04-06T14:39:55;13.13;;;11.20;;
9461;SDS011;4769;42.660;23.262;2023-04-06T14:42:24;12.30;;;10.67;;
9461;SDS011;4769;42.660;23.262;2023-04-06T14:44:49;9.30;;;8.40;;
9461;SDS011;4769;42.660;23.262;2023-04-06T14:47:15;9.77;;;8.63;;